sensor_id;sensor_type;location;lat;lon;timestamp;P1;durP1;ratioP1;P2;durP2;ratioP2
4132;SDS011;2080;51.038;7.008;2023-04-24T00:01:01;1999.90;;;999.90;;
4132;SDS011;2080;51.038;7.008;2023-04-24T00:03:26;1342.10;;;999.90;;
4132;SDS011;2080;51.038;7.008;2023-04-24T00:05:55;1999.90;;;999.90;;
4132;SDS011;2080;51.038;7.008;2023-04-24T00:08:20;1999.90;;;999.90;;
4132;SDS011;2080;51.038;7.008;2023-04-24T00:10:47;1999.90;;;999.90;;
4132;SDS011;2080;51.038;7.008;2023-04-24T00:13:15;1999.90;;;999.90;;
4132;SDS011;2080;51.038;7.008;2023-04-24T00:15:40;1999.90;;;999.90;;
4132;SDS011;2080;51.038;7.008;2023-04-24T00:18:05;1999.90;;;999.90;;
4132;SDS011;2080;51.038;7.008;2023-04-24T00:20:31;1999.90;;;999.90;;
4132;SDS011;2080;51.038;7.008;2023-04-24T00:23:00;770.10;;;501.33;;
4132;SDS011;2080;51.038;7.008;2023-04-24T00:25:26;1999.90;;;999.90;;
4132;SDS011;2080;51.038;7.008;2023-04-24T00:27:51;1453.22;;;999.90;;
4132;SDS011;2080;51.038;7.008;2023-04-24T00:30:16;1999.90;;;999.90;;
4132;SDS011;2080;51.038;7.008;2023-04-24T00:32:44;1999.90;;;999.90;;
4132;SDS011;2080;51.038;7.008;2023-04-24T00:35:12;1338.85;;;999.90;;
4132;SDS011;2080;51.038;7.008;2023-04-24T00:37:37;1386.15;;;999.90;;
4132;SDS011;2080;51.038;7.008;2023-04-24T00:40:03;1331.07;;;999.90;;
4132;SDS011;2080;51.038;7.008;2023-04-24T00:42:29;1423.22;;;999.90;;
4132;SDS011;2080;51.038;7.008;2023-04-24T00:44:57;1417.63;;;999.90;;
4132;SDS011;2080;51.038;7.008;2023-04-24T00:47:23;1351.45;;;999.90;;
4132;SDS011;2080;51.038;7.008;2023-04-24T00:49:50;1305.85;;;999.90;;
4132;SDS011;2080;51.038;7.008;2023-04-24T00:52:18;1431.53;;;999.90;;
4132;SDS011;2080;51.038;7.008;2023-04-24T00:54:44;1414.40;;;999.90;;
4132;SDS011;2080;51.038;7.008;2023-04-24T00:57:13;1243.75;;;999.90;;
4132;SDS011;2080;51.038;7.008;2023-04-24T00:59:40;1307.28;;;999.90;;
4132;SDS011;2080;51.038;7.008;2023-04-24T01:02:07;1015.97;;;927.72;;
4132;SDS011;2080;51.038;7.008;2023-04-24T01:04:34;915.03;;;834.97;;
4132;SDS011;2080;51.038;7.008;2023-04-24T01:06:59;1008.00;;;918.70;;
4132;SDS011;2080;51.038;7.008;2023-04-24T01:09:28;1024.72;;;932.65;;
4132;SDS011;2080;51.038;7.008;2023-04-24T01:11:55;951.90;;;871.20;;
4132;SDS011;2080;51.038;7.008;2023-04-24T01:14:23;1034.22;;;941.88;;
4132;SDS011;2080;51.038;7.008;2023-04-24T01:16:49;952.57;;;871.00;;
4132;SDS011;2080;51.038;7.008;2023-04-24T01:19:15;926.63;;;845.73;;
4132;SDS011;2080;51.038;7.008;2023-04-24T01:21:43;892.28;;;815.10;;
4132;SDS011;2080;51.038;7.008;2023-04-24T01:24:12;915.92;;;837.80;;
4132;SDS011;2080;51.038;7.008;2023-04-24T01:26:37;1043.15;;;947.83;;
4132;SDS011;2080;51.038;7.008;2023-04-24T01:29:03;857.57;;;781.67;;
4132;SDS011;2080;51.038;7.008;2023-04-24T01:31:28;844.30;;;772.80;;
4132;SDS011;2080;51.038;7.008;2023-04-24T01:33:58;884.73;;;810.03;;
4132;SDS011;2080;51.038;7.008;2023-04-24T01:36:26;928.97;;;848.03;;
4132;SDS011;2080;51.038;7.008;2023-04-24T01:38:56;813.00;;;744.00;;
4132;SDS011;2080;51.038;7.008;2023-04-24T01:41:21;894.67;;;816.83;;
4132;SDS011;2080;51.038;7.008;2023-04-24T01:43:50;1162.10;;;999.90;;
4132;SDS011;2080;51.038;7.008;2023-04-24T01:46:15;911.85;;;835.20;;
4132;SDS011;2080;51.038;7.008;2023-04-24T01:48:44;886.63;;;811.30;;
4132;SDS011;2080;51.038;7.008;2023-04-24T01:51:13;959.58;;;878.08;;
4132;SDS011;2080;51.038;7.008;2023-04-24T01:53:40;1164.80;;;999.90;;
4132;SDS011;2080;51.038;7.008;2023-04-24T01:56:06;1079.20;;;983.20;;
4132;SDS011;2080;51.038;7.008;2023-04-24T01:58:33;1110.83;;;999.90;;
4132;SDS011;2080;51.038;7.008;2023-04-24T02:01:01;1171.32;;;999.90;;
4132;SDS011;2080;51.038;7.008;2023-04-24T02:03:26;1315.10;;;999.90;;
4132;SDS011;2080;51.038;7.008;2023-04-24T02:05:52;1313.25;;;999.90;;
4132;SDS011;2080;51.038;7.008;2023-04-24T02:08:17;1302.00;;;999.90;;
4132;SDS011;2080;51.038;7.008;2023-04-24T02:10:47;1316.15;;;999.90;;
4132;SDS011;2080;51.038;7.008;2023-04-24T02:13:13;1346.37;;;999.90;;
4132;SDS011;2080;51.038;7.008;2023-04-24T02:15:38;1253.57;;;999.90;;
4132;SDS011;2080;51.038;7.008;2023-04-24T02:18:03;1343.22;;;999.90;;
4132;SDS011;2080;51.038;7.008;2023-04-24T02:20:29;1372.37;;;999.90;;
4132;SDS011;2080;51.038;7.008;2023-04-24T02:22:55;1296.90;;;999.90;;
4132;SDS011;2080;51.038;7.008;2023-04-24T02:25:20;1387.00;;;999.90;;
4132;SDS011;2080;51.038;7.008;2023-04-24T02:27:46;1397.70;;;999.90;;
4132;SDS011;2080;51.038;7.008;2023-04-24T02:30:16;1394.70;;;999.90;;
4132;SDS011;2080;51.038;7.008;2023-04-24T02:32:44;1999.90;;;999.90;;
4132;SDS011;2080;51.038;7.008;2023-04-24T02:35:10;1469.13;;;805.38;;
4132;SDS011;2080;51.038;7.008;2023-04-24T02:37:35;1806.83;;;999.90;;
4132;SDS011;2080;51.038;7.008;2023-04-24T02:40:00;1442.13;;;999.90;;
4132;SDS011;2080;51.038;7.008;2023-04-24T02:42:29;1524.35;;;840.50;;
4132;SDS011;2080;51.038;7.008;2023-04-24T02:44:54;1487.85;;;874.35;;
4132;SDS011;2080;51.038;7.008;2023-04-24T02:47:23;1350.30;;;999.90;;
4132;SDS011;2080;51.038;7.008;2023-04-24T02:49:51;1999.90;;;999.90;;
4132;SDS011;2080;51.038;7.008;2023-04-24T02:52:20;1999.90;;;999.90;;
4132;SDS011;2080;51.038;7.008;2023-04-24T02:54:45;1278.05;;;766.95;;
4132;SDS011;2080;51.038;7.008;2023-04-24T02:57:10;1525.20;;;758.00;;
4132;SDS011;2080;51.038;7.008;2023-04-24T02:59:38;1590.18;;;999.90;;
4132;SDS011;2080;51.038;7.008;2023-04-24T03:02:03;1525.80;;;999.90;;
4132;SDS011;2080;51.038;7.008;2023-04-24T03:04:31;1534.87;;;999.90;;
4132;SDS011;2080;51.038;7.008;2023-04-24T03:06:57;1440.15;;;999.90;;
4132;SDS011;2080;51.038;7.008;2023-04-24T03:09:22;1471.43;;;999.90;;
4132;SDS011;2080;51.038;7.008;2023-04-24T03:11:47;1227.93;;;999.90;;
4132;SDS011;2080;51.038;7.008;2023-04-24T03:14:15;1361.78;;;999.90;;
4132;SDS011;2080;51.038;7.008;2023-04-24T03:16:43;1370.07;;;999.90;;
4132;SDS011;2080;51.038;7.008;2023-04-24T03:19:09;1307.70;;;999.90;;
4132;SDS011;2080;51.038;7.008;2023-04-24T03:21:34;1207.70;;;999.90;;
4132;SDS011;2080;51.038;7.008;2023-04-24T03:24:05;1454.95;;;999.90;;
4132;SDS011;2080;51.038;7.008;2023-04-24T03:26:34;1300.53;;;999.90;;
4132;SDS011;2080;51.038;7.008;2023-04-24T03:29:00;1282.53;;;999.90;;
4132;SDS011;2080;51.038;7.008;2023-04-24T03:31:25;1352.63;;;999.90;;
4132;SDS011;2080;51.038;7.008;2023-04-24T03:33:50;1276.73;;;999.90;;
4132;SDS011;2080;51.038;7.008;2023-04-24T03:36:18;1376.20;;;999.90;;
4132;SDS011;2080;51.038;7.008;2023-04-24T03:38:46;1319.20;;;999.90;;
4132;SDS011;2080;51.038;7.008;2023-04-24T03:41:12;1380.87;;;999.90;;
4132;SDS011;2080;51.038;7.008;2023-04-24T03:43:37;1100.00;;;999.77;;
4132;SDS011;2080;51.038;7.008;2023-04-24T03:46:07;1382.57;;;999.90;;
4132;SDS011;2080;51.038;7.008;2023-04-24T03:48:37;1405.97;;;999.90;;
4132;SDS011;2080;51.038;7.008;2023-04-24T03:51:05;1428.22;;;999.90;;
4132;SDS011;2080;51.038;7.008;2023-04-24T03:53:30;1508.68;;;999.90;;
4132;SDS011;2080;51.038;7.008;2023-04-24T03:55:58;1449.25;;;999.90;;
4132;SDS011;2080;51.038;7.008;2023-04-24T03:58:25;1381.30;;;999.90;;
4132;SDS011;2080;51.038;7.008;2023-04-24T04:00:53;1443.57;;;999.90;;
4132;SDS011;2080;51.038;7.008;2023-04-24T04:03:19;1351.73;;;999.90;;
4132;SDS011;2080;51.038;7.008;2023-04-24T04:05:44;1399.70;;;999.90;;
4132;SDS011;2080;51.038;7.008;2023-04-24T04:08:10;1385.38;;;999.90;;
4132;SDS011;2080;51.038;7.008;2023-04-24T04:10:35;1209.37;;;999.90;;
4132;SDS011;2080;51.038;7.008;2023-04-24T04:13:00;1344.70;;;999.90;;
4132;SDS011;2080;51.038;7.008;2023-04-24T04:15:28;1297.95;;;999.90;;
4132;SDS011;2080;51.038;7.008;2023-04-24T04:17:53;1451.40;;;999.90;;
4132;SDS011;2080;51.038;7.008;2023-04-24T04:20:21;1474.13;;;999.90;;
4132;SDS011;2080;51.038;7.008;2023-04-24T04:22:47;1250.30;;;999.90;;
4132;SDS011;2080;51.038;7.008;2023-04-24T04:25:12;1394.13;;;999.90;;
4132;SDS011;2080;51.038;7.008;2023-04-24T04:27:38;1429.88;;;999.90;;
4132;SDS011;2080;51.038;7.008;2023-04-24T04:30:06;1422.25;;;999.90;;
4132;SDS011;2080;51.038;7.008;2023-04-24T04:32:33;1366.90;;;999.90;;
4132;SDS011;2080;51.038;7.008;2023-04-24T04:34:59;1363.70;;;999.90;;
4132;SDS011;2080;51.038;7.008;2023-04-24T04:37:28;1476.20;;;999.90;;
4132;SDS011;2080;51.038;7.008;2023-04-24T04:39:57;1436.05;;;999.90;;
4132;SDS011;2080;51.038;7.008;2023-04-24T04:42:26;1353.90;;;999.90;;
4132;SDS011;2080;51.038;7.008;2023-04-24T04:44:52;1404.03;;;999.90;;
4132;SDS011;2080;51.038;7.008;2023-04-24T04:47:18;1449.97;;;999.90;;
4132;SDS011;2080;51.038;7.008;2023-04-24T04:49:48;1457.03;;;999.90;;
4132;SDS011;2080;51.038;7.008;2023-04-24T04:52:13;1514.57;;;999.90;;
4132;SDS011;2080;51.038;7.008;2023-04-24T04:54:39;1167.90;;;913.33;;
4132;SDS011;2080;51.038;7.008;2023-04-24T04:57:05;1563.70;;;999.90;;
4132;SDS011;2080;51.038;7.008;2023-04-24T04:59:33;1435.75;;;999.90;;
4132;SDS011;2080;51.038;7.008;2023-04-24T05:02:02;1521.60;;;999.90;;
4132;SDS011;2080;51.038;7.008;2023-04-24T05:04:27;1419.80;;;999.90;;
4132;SDS011;2080;51.038;7.008;2023-04-24T05:06:52;1471.43;;;999.90;;
4132;SDS011;2080;51.038;7.008;2023-04-24T05:09:18;1365.85;;;999.90;;
4132;SDS011;2080;51.038;7.008;2023-04-24T05:11:46;1481.70;;;999.90;;
4132;SDS011;2080;51.038;7.008;2023-04-24T05:14:16;1424.97;;;999.90;;
4132;SDS011;2080;51.038;7.008;2023-04-24T05:16:42;1419.22;;;999.90;;
4132;SDS011;2080;51.038;7.008;2023-04-24T05:19:08;1435.50;;;999.90;;
4132;SDS011;2080;51.038;7.008;2023-04-24T05:21:33;1477.43;;;999.90;;
4132;SDS011;2080;51.038;7.008;2023-04-24T05:24:01;1502.38;;;999.90;;
4132;SDS011;2080;51.038;7.008;2023-04-24T05:26:26;1587.13;;;999.90;;
4132;SDS011;2080;51.038;7.008;2023-04-24T05:28:52;1345.57;;;999.90;;
4132;SDS011;2080;51.038;7.008;2023-04-24T05:31:17;1436.63;;;999.90;;
4132;SDS011;2080;51.038;7.008;2023-04-24T05:33:43;1238.37;;;983.23;;
4132;SDS011;2080;51.038;7.008;2023-04-24T05:36:08;1714.83;;;973.90;;
4132;SDS011;2080;51.038;7.008;2023-04-24T05:38:38;1456.95;;;999.90;;
4132;SDS011;2080;51.038;7.008;2023-04-24T05:41:05;1446.07;;;999.90;;
4132;SDS011;2080;51.038;7.008;2023-04-24T05:43:35;1788.25;;;955.40;;
4132;SDS011;2080;51.038;7.008;2023-04-24T05:46:01;1605.43;;;999.90;;
4132;SDS011;2080;51.038;7.008;2023-04-24T05:48:28;1627.55;;;937.20;;
4132;SDS011;2080;51.038;7.008;2023-04-24T05:50:56;1206.10;;;923.00;;
4132;SDS011;2080;51.038;7.008;2023-04-24T05:53:21;1650.67;;;999.90;;
4132;SDS011;2080;51.038;7.008;2023-04-24T05:55:52;1419.03;;;999.90;;
4132;SDS011;2080;51.038;7.008;2023-04-24T05:58:17;1342.37;;;984.33;;
4132;SDS011;2080;51.038;7.008;2023-04-24T06:00:47;964.63;;;618.58;;
4132;SDS011;2080;51.038;7.008;2023-04-24T06:03:15;1478.15;;;812.22;;
4132;SDS011;2080;51.038;7.008;2023-04-24T06:05:40;1514.83;;;996.93;;
4132;SDS011;2080;51.038;7.008;2023-04-24T06:08:05;1584.80;;;999.90;;
4132;SDS011;2080;51.038;7.008;2023-04-24T06:10:31;1563.17;;;999.90;;
4132;SDS011;2080;51.038;7.008;2023-04-24T06:12:57;1482.38;;;999.90;;
4132;SDS011;2080;51.038;7.008;2023-04-24T06:15:27;1567.63;;;999.90;;
4132;SDS011;2080;51.038;7.008;2023-04-24T06:17:56;1624.63;;;999.90;;
4132;SDS011;2080;51.038;7.008;2023-04-24T06:20:22;1489.18;;;999.90;;
4132;SDS011;2080;51.038;7.008;2023-04-24T06:22:47;1490.13;;;830.78;;
4132;SDS011;2080;51.038;7.008;2023-04-24T06:25:15;1405.88;;;999.90;;
4132;SDS011;2080;51.038;7.008;2023-04-24T06:27:40;1999.90;;;999.90;;
4132;SDS011;2080;51.038;7.008;2023-04-24T06:30:08;1214.90;;;779.22;;
4132;SDS011;2080;51.038;7.008;2023-04-24T06:32:34;1999.90;;;999.90;;
4132;SDS011;2080;51.038;7.008;2023-04-24T06:34:59;1718.72;;;999.90;;
4132;SDS011;2080;51.038;7.008;2023-04-24T06:37:25;1488.73;;;999.90;;
4132;SDS011;2080;51.038;7.008;2023-04-24T06:39:50;1449.63;;;999.90;;
4132;SDS011;2080;51.038;7.008;2023-04-24T06:42:16;1404.33;;;999.90;;
4132;SDS011;2080;51.038;7.008;2023-04-24T06:44:41;1999.90;;;999.90;;
4132;SDS011;2080;51.038;7.008;2023-04-24T06:47:10;1849.30;;;999.90;;
4132;SDS011;2080;51.038;7.008;2023-04-24T06:49:36;1999.90;;;999.90;;
4132;SDS011;2080;51.038;7.008;2023-04-24T06:52:07;1555.25;;;999.90;;
4132;SDS011;2080;51.038;7.008;2023-04-24T06:54:35;1999.90;;;999.90;;
4132;SDS011;2080;51.038;7.008;2023-04-24T06:57:01;1999.90;;;999.90;;
4132;SDS011;2080;51.038;7.008;2023-04-24T06:59:29;1999.90;;;999.90;;
4132;SDS011;2080;51.038;7.008;2023-04-24T07:01:57;1711.70;;;999.90;;
4132;SDS011;2080;51.038;7.008;2023-04-24T07:04:25;1999.90;;;999.90;;
4132;SDS011;2080;51.038;7.008;2023-04-24T07:06:53;1999.90;;;999.90;;
4132;SDS011;2080;51.038;7.008;2023-04-24T07:09:23;1310.00;;;631.50;;
4132;SDS011;2080;51.038;7.008;2023-04-24T07:11:49;1107.53;;;723.58;;
4132;SDS011;2080;51.038;7.008;2023-04-24T07:14:15;1561.13;;;851.08;;
4132;SDS011;2080;51.038;7.008;2023-04-24T07:16:45;938.83;;;510.40;;
4132;SDS011;2080;51.038;7.008;2023-04-24T07:19:11;1999.90;;;999.90;;
4132;SDS011;2080;51.038;7.008;2023-04-24T07:21:37;1999.90;;;999.90;;
4132;SDS011;2080;51.038;7.008;2023-04-24T07:24:02;1999.90;;;999.90;;
4132;SDS011;2080;51.038;7.008;2023-04-24T07:26:28;1999.90;;;999.90;;
4132;SDS011;2080;51.038;7.008;2023-04-24T07:28:54;1999.90;;;999.90;;
4132;SDS011;2080;51.038;7.008;2023-04-24T07:31:20;1999.90;;;999.90;;
4132;SDS011;2080;51.038;7.008;2023-04-24T07:33:48;1999.90;;;999.90;;
4132;SDS011;2080;51.038;7.008;2023-04-24T07:36:13;1999.90;;;999.90;;
4132;SDS011;2080;51.038;7.008;2023-04-24T07:38:43;1999.90;;;999.90;;
4132;SDS011;2080;51.038;7.008;2023-04-24T07:41:09;1741.22;;;852.38;;
4132;SDS011;2080;51.038;7.008;2023-04-24T07:43:36;1999.90;;;999.90;;
4132;SDS011;2080;51.038;7.008;2023-04-24T07:46:02;1999.90;;;999.90;;
4132;SDS011;2080;51.038;7.008;2023-04-24T07:48:27;1999.90;;;999.90;;
4132;SDS011;2080;51.038;7.008;2023-04-24T07:50:53;1999.90;;;999.90;;
4132;SDS011;2080;51.038;7.008;2023-04-24T07:53:21;879.88;;;417.98;;
4132;SDS011;2080;51.038;7.008;2023-04-24T07:55:46;1999.90;;;999.90;;
4132;SDS011;2080;51.038;7.008;2023-04-24T07:58:11;1999.90;;;999.90;;
4132;SDS011;2080;51.038;7.008;2023-04-24T08:00:37;1999.90;;;999.90;;
4132;SDS011;2080;51.038;7.008;2023-04-24T08:03:02;1999.90;;;999.90;;
4132;SDS011;2080;51.038;7.008;2023-04-24T08:05:27;1999.90;;;999.90;;
4132;SDS011;2080;51.038;7.008;2023-04-24T08:07:53;1481.37;;;718.73;;
4132;SDS011;2080;51.038;7.008;2023-04-24T08:10:20;1783.77;;;908.27;;
4132;SDS011;2080;51.038;7.008;2023-04-24T08:12:46;1999.90;;;999.90;;
4132;SDS011;2080;51.038;7.008;2023-04-24T08:15:11;1764.13;;;878.65;;
4132;SDS011;2080;51.038;7.008;2023-04-24T08:17:37;1999.90;;;999.90;;
4132;SDS011;2080;51.038;7.008;2023-04-24T08:20:03;1999.90;;;999.90;;
4132;SDS011;2080;51.038;7.008;2023-04-24T08:22:30;1220.28;;;686.75;;
4132;SDS011;2080;51.038;7.008;2023-04-24T08:24:59;1999.90;;;999.90;;
4132;SDS011;2080;51.038;7.008;2023-04-24T08:27:25;1999.90;;;999.90;;
4132;SDS011;2080;51.038;7.008;2023-04-24T08:29:52;1999.90;;;999.90;;
4132;SDS011;2080;51.038;7.008;2023-04-24T08:32:22;1236.22;;;567.05;;
4132;SDS011;2080;51.038;7.008;2023-04-24T08:34:50;1999.90;;;999.90;;
4132;SDS011;2080;51.038;7.008;2023-04-24T08:37:17;1999.90;;;999.90;;
4132;SDS011;2080;51.038;7.008;2023-04-24T08:39:43;1999.90;;;999.90;;
4132;SDS011;2080;51.038;7.008;2023-04-24T08:42:10;1598.27;;;781.97;;
4132;SDS011;2080;51.038;7.008;2023-04-24T08:44:36;974.55;;;454.30;;
4132;SDS011;2080;51.038;7.008;2023-04-24T08:47:02;1999.90;;;999.90;;
4132;SDS011;2080;51.038;7.008;2023-04-24T08:49:28;1755.80;;;999.90;;
4132;SDS011;2080;51.038;7.008;2023-04-24T08:51:54;1999.90;;;999.90;;
4132;SDS011;2080;51.038;7.008;2023-04-24T08:54:20;1999.90;;;999.90;;
4132;SDS011;2080;51.038;7.008;2023-04-24T08:56:46;1361.75;;;686.50;;
4132;SDS011;2080;51.038;7.008;2023-04-24T08:59:13;1579.13;;;770.05;;
4132;SDS011;2080;51.038;7.008;2023-04-24T09:01:40;673.72;;;243.82;;
4132;SDS011;2080;51.038;7.008;2023-04-24T09:04:07;1436.35;;;858.60;;
4132;SDS011;2080;51.038;7.008;2023-04-24T09:06:35;1999.90;;;999.90;;
4132;SDS011;2080;51.038;7.008;2023-04-24T09:09:01;1999.90;;;999.90;;
4132;SDS011;2080;51.038;7.008;2023-04-24T09:11:27;1999.90;;;999.90;;
4132;SDS011;2080;51.038;7.008;2023-04-24T09:13:55;1691.70;;;837.20;;
4132;SDS011;2080;51.038;7.008;2023-04-24T09:16:26;1167.68;;;533.15;;
4132;SDS011;2080;51.038;7.008;2023-04-24T09:18:52;1999.90;;;999.90;;
4132;SDS011;2080;51.038;7.008;2023-04-24T09:21:20;1311.63;;;830.83;;
4132;SDS011;2080;51.038;7.008;2023-04-24T09:23:47;1305.88;;;619.90;;
4132;SDS011;2080;51.038;7.008;2023-04-24T09:26:23;1999.90;;;999.90;;
4132;SDS011;2080;51.038;7.008;2023-04-24T09:28:51;1999.90;;;999.90;;
4132;SDS011;2080;51.038;7.008;2023-04-24T09:31:18;1487.00;;;833.07;;
4132;SDS011;2080;51.038;7.008;2023-04-24T09:33:58;1999.90;;;999.90;;
4132;SDS011;2080;51.038;7.008;2023-04-24T09:36:30;1642.18;;;808.28;;
4132;SDS011;2080;51.038;7.008;2023-04-24T09:39:02;585.90;;;273.35;;
4132;SDS011;2080;51.038;7.008;2023-04-24T09:41:33;1347.10;;;667.30;;
4132;SDS011;2080;51.038;7.008;2023-04-24T09:44:10;1999.90;;;999.90;;
4132;SDS011;2080;51.038;7.008;2023-04-24T09:46:50;915.00;;;523.90;;
4132;SDS011;2080;51.038;7.008;2023-04-24T09:49:21;1999.90;;;999.90;;
4132;SDS011;2080;51.038;7.008;2023-04-24T09:51:48;1913.20;;;983.70;;
4132;SDS011;2080;51.038;7.008;2023-04-24T09:54:17;1166.50;;;874.50;;
4132;SDS011;2080;51.038;7.008;2023-04-24T09:56:49;1999.90;;;999.90;;
4132;SDS011;2080;51.038;7.008;2023-04-24T09:59:18;1999.90;;;999.90;;
4132;SDS011;2080;51.038;7.008;2023-04-24T10:01:47;1999.90;;;999.90;;
4132;SDS011;2080;51.038;7.008;2023-04-24T10:04:16;1999.90;;;999.90;;
4132;SDS011;2080;51.038;7.008;2023-04-24T10:06:49;1999.90;;;999.90;;
4132;SDS011;2080;51.038;7.008;2023-04-24T10:09:20;1386.67;;;975.90;;
4132;SDS011;2080;51.038;7.008;2023-04-24T10:11:47;1999.90;;;999.90;;
4132;SDS011;2080;51.038;7.008;2023-04-24T10:14:17;1999.90;;;999.90;;
4132;SDS011;2080;51.038;7.008;2023-04-24T10:16:48;1999.90;;;999.90;;
4132;SDS011;2080;51.038;7.008;2023-04-24T10:19:14;1999.90;;;999.90;;
4132;SDS011;2080;51.038;7.008;2023-04-24T10:21:43;1410.43;;;684.67;;
4132;SDS011;2080;51.038;7.008;2023-04-24T10:24:11;1836.70;;;999.90;;
4132;SDS011;2080;51.038;7.008;2023-04-24T10:26:38;1999.90;;;999.90;;
4132;SDS011;2080;51.038;7.008;2023-04-24T10:29:03;1999.90;;;999.90;;
4132;SDS011;2080;51.038;7.008;2023-04-24T10:31:37;1999.90;;;999.90;;
4132;SDS011;2080;51.038;7.008;2023-04-24T10:34:10;1999.90;;;999.90;;
4132;SDS011;2080;51.038;7.008;2023-04-24T10:36:38;1999.90;;;999.90;;
4132;SDS011;2080;51.038;7.008;2023-04-24T10:39:09;1999.90;;;999.90;;
4132;SDS011;2080;51.038;7.008;2023-04-24T10:41:38;1548.43;;;829.10;;
4132;SDS011;2080;51.038;7.008;2023-04-24T10:44:06;1999.90;;;999.90;;
4132;SDS011;2080;51.038;7.008;2023-04-24T10:46:35;1235.05;;;590.60;;
4132;SDS011;2080;51.038;7.008;2023-04-24T10:49:06;1204.35;;;569.45;;
4132;SDS011;2080;51.038;7.008;2023-04-24T10:51:51;1999.90;;;999.90;;
4132;SDS011;2080;51.038;7.008;2023-04-24T10:57:25;1999.90;;;999.90;;
4132;SDS011;2080;51.038;7.008;2023-04-24T10:59:49;1490.00;;;808.05;;
4132;SDS011;2080;51.038;7.008;2023-04-24T11:02:17;1999.90;;;999.90;;
4132;SDS011;2080;51.038;7.008;2023-04-24T11:04:43;719.85;;;274.27;;
4132;SDS011;2080;51.038;7.008;2023-04-24T11:07:10;1278.60;;;627.47;;
4132;SDS011;2080;51.038;7.008;2023-04-24T11:09:36;1999.90;;;999.90;;
4132;SDS011;2080;51.038;7.008;2023-04-24T11:12:08;1362.45;;;912.00;;
4132;SDS011;2080;51.038;7.008;2023-04-24T11:17:35;1512.55;;;908.85;;
4132;SDS011;2080;51.038;7.008;2023-04-24T11:22:36;1059.57;;;596.30;;
4132;SDS011;2080;51.038;7.008;2023-04-24T11:25:02;1699.75;;;860.13;;
4132;SDS011;2080;51.038;7.008;2023-04-24T11:27:39;1688.70;;;860.28;;
4132;SDS011;2080;51.038;7.008;2023-04-24T11:30:05;1999.90;;;999.90;;
4132;SDS011;2080;51.038;7.008;2023-04-24T11:32:41;929.92;;;557.92;;
4132;SDS011;2080;51.038;7.008;2023-04-24T11:35:14;1999.90;;;999.90;;
4132;SDS011;2080;51.038;7.008;2023-04-24T11:37:42;1309.60;;;999.90;;
4132;SDS011;2080;51.038;7.008;2023-04-24T11:40:14;1264.43;;;999.90;;
4132;SDS011;2080;51.038;7.008;2023-04-24T11:42:44;1614.32;;;999.90;;
4132;SDS011;2080;51.038;7.008;2023-04-24T11:47:40;1196.20;;;999.90;;
4132;SDS011;2080;51.038;7.008;2023-04-24T11:50:10;1356.13;;;999.90;;
4132;SDS011;2080;51.038;7.008;2023-04-24T11:52:38;1999.90;;;999.90;;
4132;SDS011;2080;51.038;7.008;2023-04-24T11:55:07;1352.38;;;999.90;;
4132;SDS011;2080;51.038;7.008;2023-04-24T11:57:54;1413.30;;;999.90;;
4132;SDS011;2080;51.038;7.008;2023-04-24T12:00:26;1309.88;;;999.90;;
4132;SDS011;2080;51.038;7.008;2023-04-24T12:03:12;1406.60;;;999.90;;
4132;SDS011;2080;51.038;7.008;2023-04-24T12:05:37;1303.40;;;999.90;;
4132;SDS011;2080;51.038;7.008;2023-04-24T12:08:03;1360.07;;;999.90;;
4132;SDS011;2080;51.038;7.008;2023-04-24T12:10:30;1295.03;;;999.90;;
4132;SDS011;2080;51.038;7.008;2023-04-24T12:12:57;1231.75;;;999.90;;
4132;SDS011;2080;51.038;7.008;2023-04-24T12:15:23;1181.20;;;999.90;;
4132;SDS011;2080;51.038;7.008;2023-04-24T12:17:53;1316.53;;;999.90;;
4132;SDS011;2080;51.038;7.008;2023-04-24T12:22:53;1414.13;;;999.90;;
4132;SDS011;2080;51.038;7.008;2023-04-24T12:25:20;1325.67;;;999.90;;
4132;SDS011;2080;51.038;7.008;2023-04-24T12:27:53;1300.93;;;999.90;;
4132;SDS011;2080;51.038;7.008;2023-04-24T12:30:20;1137.90;;;999.90;;
4132;SDS011;2080;51.038;7.008;2023-04-24T12:32:46;1071.63;;;975.90;;
4132;SDS011;2080;51.038;7.008;2023-04-24T12:35:14;1294.70;;;999.90;;
4132;SDS011;2080;51.038;7.008;2023-04-24T12:37:48;1142.90;;;999.90;;
4132;SDS011;2080;51.038;7.008;2023-04-24T12:40:16;955.45;;;872.92;;
4132;SDS011;2080;51.038;7.008;2023-04-24T12:42:47;1013.50;;;921.33;;
4132;SDS011;2080;51.038;7.008;2023-04-24T12:45:14;949.45;;;866.13;;
4132;SDS011;2080;51.038;7.008;2023-04-24T12:47:41;826.30;;;755.03;;
4132;SDS011;2080;51.038;7.008;2023-04-24T12:50:10;1053.85;;;961.45;;
4132;SDS011;2080;51.038;7.008;2023-04-24T12:52:40;928.03;;;846.40;;
4132;SDS011;2080;51.038;7.008;2023-04-24T12:55:06;590.73;;;530.10;;
4132;SDS011;2080;51.038;7.008;2023-04-24T12:57:37;885.92;;;808.47;;
4132;SDS011;2080;51.038;7.008;2023-04-24T13:00:03;722.17;;;534.63;;
4132;SDS011;2080;51.038;7.008;2023-04-24T13:02:35;983.50;;;898.28;;
4132;SDS011;2080;51.038;7.008;2023-04-24T13:05:01;729.70;;;660.57;;
4132;SDS011;2080;51.038;7.008;2023-04-24T13:07:27;441.50;;;319.77;;
4132;SDS011;2080;51.038;7.008;2023-04-24T13:09:53;902.72;;;823.67;;
4132;SDS011;2080;51.038;7.008;2023-04-24T13:12:20;732.70;;;661.53;;
4132;SDS011;2080;51.038;7.008;2023-04-24T13:14:46;427.00;;;307.70;;
4132;SDS011;2080;51.038;7.008;2023-04-24T13:17:14;684.17;;;586.50;;
4132;SDS011;2080;51.038;7.008;2023-04-24T13:19:42;605.33;;;545.92;;
4132;SDS011;2080;51.038;7.008;2023-04-24T13:22:12;796.38;;;726.95;;
4132;SDS011;2080;51.038;7.008;2023-04-24T13:24:38;599.75;;;541.00;;
4132;SDS011;2080;51.038;7.008;2023-04-24T13:27:07;429.10;;;315.67;;
4132;SDS011;2080;51.038;7.008;2023-04-24T13:29:33;532.78;;;429.20;;
4132;SDS011;2080;51.038;7.008;2023-04-24T13:31:59;498.17;;;444.63;;
4132;SDS011;2080;51.038;7.008;2023-04-24T13:34:25;826.73;;;753.80;;
4132;SDS011;2080;51.038;7.008;2023-04-24T13:36:54;637.85;;;572.05;;
4132;SDS011;2080;51.038;7.008;2023-04-24T13:39:21;475.63;;;391.38;;
4132;SDS011;2080;51.038;7.008;2023-04-24T13:41:47;693.95;;;631.13;;
4132;SDS011;2080;51.038;7.008;2023-04-24T13:44:13;738.45;;;661.60;;
4132;SDS011;2080;51.038;7.008;2023-04-24T13:46:39;452.73;;;373.60;;
4132;SDS011;2080;51.038;7.008;2023-04-24T13:49:09;663.40;;;601.72;;
4132;SDS011;2080;51.038;7.008;2023-04-24T13:51:34;468.50;;;415.23;;
4132;SDS011;2080;51.038;7.008;2023-04-24T13:53:59;501.37;;;447.30;;
4132;SDS011;2080;51.038;7.008;2023-04-24T13:56:25;754.33;;;679.93;;
4132;SDS011;2080;51.038;7.008;2023-04-24T13:58:53;662.65;;;600.65;;
4132;SDS011;2080;51.038;7.008;2023-04-24T14:01:21;769.70;;;696.05;;
4132;SDS011;2080;51.038;7.008;2023-04-24T14:03:52;836.20;;;764.40;;
4132;SDS011;2080;51.038;7.008;2023-04-24T14:06:18;639.63;;;578.43;;
4132;SDS011;2080;51.038;7.008;2023-04-24T14:08:46;1020.33;;;931.78;;
4132;SDS011;2080;51.038;7.008;2023-04-24T14:11:12;967.20;;;879.53;;
4132;SDS011;2080;51.038;7.008;2023-04-24T14:13:43;518.90;;;444.73;;
4132;SDS011;2080;51.038;7.008;2023-04-24T14:16:12;525.30;;;469.60;;
4132;SDS011;2080;51.038;7.008;2023-04-24T14:18:38;943.55;;;860.90;;
4132;SDS011;2080;51.038;7.008;2023-04-24T14:21:06;452.40;;;354.58;;
4132;SDS011;2080;51.038;7.008;2023-04-24T14:23:31;606.30;;;532.20;;
4132;SDS011;2080;51.038;7.008;2023-04-24T14:25:57;487.25;;;426.42;;